Newvida — V7KQ7 — position and weather

sailwx.info

Track history (hours):
 
Tides and Currents Weather Stations Pressure Air Temp Water Temp Dewpoint Dewpoint Depression Visibility Wind Speed Wind Dir Waves Ship Positions

Newvida

Last reported at 2016-Jul-27 00:30 UTC. Time now 2016-Jul-27 01:14 UTC.
Position N 43°35' E 007°08'.

Length 56 m; draft 2.4 m.

Type: Pleasure craft. MMSI: 538080049.

Date/timePositionNaut miles runAvg speedWind from/ knotsBaromVisibWave heightAir tempDewpointWater temp
2016-Jul-27 00:30N 43°35' E 007°08'0 0.0
2016-Jul-26 23:30N 43°35' E 007°08'0 0.0
2016-Jul-26 22:30N 43°35' E 007°08'0 0.0
2016-Jul-26 21:30N 43°35' E 007°08'0 0.0
2016-Jul-26 20:30N 43°35' E 007°08'0 0.0
2016-Jul-26 19:30N 43°35' E 007°08'0 0.0
2016-Jul-26 18:30N 43°35' E 007°08'0 0.0
2016-Jul-26 17:30N 43°35' E 007°08'0 0.0
2016-Jul-26 16:24N 43°35' E 007°08'0 0.0
2016-Jul-26 15:30N 43°35' E 007°08'0 0.0
2016-Jul-26 14:30N 43°35' E 007°08'0 0.0
2016-Jul-26 13:30N 43°35' E 007°08'0 0.0
2016-Jul-26 12:30N 43°35' E 007°08'0 0.0
2016-Jul-26 11:24N 43°35' E 007°08'0 0.0
2016-Jul-26 10:33N 43°35' E 007°08'1 0.9
2016-Jul-26 09:33N 43°36' E 007°09'9 8.5
2016-Jul-26 08:33N 43°42' E 007°17'0 0.0
2016-Jul-26 07:29N 43°42' E 007°17'0 0.0
2016-Jul-26 06:29N 43°42' E 007°17'0 0.0
2016-Jul-26 05:29N 43°42' E 007°17'0 0.0
2016-Jul-26 04:29N 43°42' E 007°17'0 0.0
2016-Jul-26 03:23N 43°42' E 007°17'0 0.0
2016-Jul-26 02:29N 43°42' E 007°17'0 0.0
2016-Jul-26 01:29N 43°42' E 007°17'0 0.0
2016-Jul-26 00:29N 43°42' E 007°17'0 0.0
2016-Jul-25 23:29N 43°42' E 007°17'0 0.0
2016-Jul-25 22:29N 43°42' E 007°17'0 0.0
2016-Jul-25 21:11N 43°42' E 007°17'0 0.0
2016-Jul-25 20:29N 43°42' E 007°17'0 0.0
2016-Jul-25 19:29N 43°42' E 007°17'0 0.0
2016-Jul-25 18:29N 43°42' E 007°17'0 0.0
2016-Jul-25 17:29N 43°42' E 007°17'0 0.0
2016-Jul-25 16:29N 43°42' E 007°17'0 0.0
2016-Jul-25 15:29N 43°42' E 007°17'0 0.0
2016-Jul-25 14:29N 43°42' E 007°17'0 0.0
2016-Jul-25 13:17N 43°42' E 007°17'0 0.0
2016-Jul-25 12:29N 43°42' E 007°17'0 0.0
2016-Jul-25 11:17N 43°42' E 007°17'0 0.0
2016-Jul-25 10:29N 43°42' E 007°17'0 0.0
2016-Jul-25 09:29N 43°42' E 007°17'0 0.0
2016-Jul-25 08:29N 43°42' E 007°17'0 0.0
2016-Jul-25 07:29N 43°42' E 007°17'0 0.0
2016-Jul-25 06:11N 43°42' E 007°17'0 0.0
2016-Jul-25 05:23N 43°42' E 007°17'0 0.0
2016-Jul-25 04:17N 43°42' E 007°17'0 0.0
2016-Jul-25 03:29N 43°42' E 007°17'0 0.0
2016-Jul-25 02:29N 43°42' E 007°17'0 0.0
2016-Jul-25 01:29N 43°42' E 007°17'0 0.0
2016-Jul-25 00:23N 43°42' E 007°17'0 0.0
2016-Jul-24 23:29N 43°42' E 007°17'0 0.0
2016-Jul-24 22:29N 43°42' E 007°17'0 0.0
2016-Jul-24 21:23N 43°42' E 007°17'0 0.0
2016-Jul-24 20:23N 43°42' E 007°17'0 0.0
2016-Jul-24 19:29N 43°42' E 007°17'0 0.0
2016-Jul-24 18:17N 43°42' E 007°17'0 0.0
2016-Jul-24 17:29N 43°42' E 007°17'0 0.0
2016-Jul-24 16:29N 43°42' E 007°17'0 0.0
2016-Jul-24 15:11N 43°42' E 007°17'0 0.0
2016-Jul-24 14:23N 43°42' E 007°17'0 0.0
2016-Jul-24 13:29N 43°42' E 007°17'0 0.0
2016-Jul-24 12:11N 43°42' E 007°17'0 0.1
2016-Jul-24 11:34N 43°42' E 007°17'5 4.6
2016-Jul-24 10:26N 43°39' E 007°11'0 0.0
2016-Jul-24 09:26N 43°39' E 007°11'0 0.0
2016-Jul-24 08:32N 43°39' E 007°11'5 4.9
2016-Jul-24 07:33N 43°34' E 007°11'30 0.8
2016-Jul-22 19:11N 43°16' E 006°38'0 0.0
2016-Jul-22 18:32N 43°16' E 006°38'0 0.0
2016-Jul-22 17:33N 43°16' E 006°38'3 3.3
2016-Jul-22 16:33N 43°15' E 006°42'2 1.0
2016-Jul-22 14:33N 43°14' E 006°40'24 2.7
2016-Jul-22 05:33N 43°32' E 007°02'0 0.0
2016-Jul-22 04:30N 43°32' E 007°02'0 0.0
2016-Jul-22 03:27N 43°32' E 007°02'0 0.0
2016-Jul-22 02:30N 43°32' E 007°02'0 0.0
2016-Jul-22 01:30N 43°32' E 007°02'0 0.0
2016-Jul-22 00:30N 43°32' E 007°02'0 0.0
2016-Jul-21 23:30N 43°32' E 007°02'0 0.0
2016-Jul-21 22:33N 43°32' E 007°02'0 0.0
2016-Jul-21 21:33N 43°32' E 007°02'0 0.0
2016-Jul-21 20:33N 43°32' E 007°02'0 0.0
2016-Jul-21 19:33N 43°32' E 007°02'0 0.0
2016-Jul-21 18:33N 43°32' E 007°02'0 0.0
2016-Jul-21 17:33N 43°32' E 007°02'0 0.3
2016-Jul-21 16:29N 43°32' E 007°01'3 2.6
2016-Jul-21 15:26N 43°31' E 007°04'3 3.7
2016-Jul-21 14:32N 43°33' E 007°06'0 0.0
2016-Jul-21 13:32N 43°33' E 007°06'0 0.0
2016-Jul-21 12:32N 43°33' E 007°06'0 0.0
2016-Jul-21 11:33N 43°33' E 007°06'2 2.4
2016-Jul-21 10:34N 43°35' E 007°08'0 0.0
2016-Jul-21 09:32N 43°35' E 007°08'0 0.0
2016-Jul-21 08:32N 43°35' E 007°08'0 0.0
2016-Jul-21 07:32N 43°35' E 007°08'0 0.0
2016-Jul-21 06:32N 43°35' E 007°08'0 0.0
2016-Jul-21 05:32N 43°35' E 007°08'0 0.0
2016-Jul-21 04:32N 43°35' E 007°08'0 0.0
2016-Jul-21 03:32N 43°35' E 007°08'0 0.0
2016-Jul-21 02:32N 43°35' E 007°08'0 0.0
2016-Jul-21 01:32N 43°35' E 007°08'0 0.0
2016-Jul-21 00:32N 43°35' E 007°08'0 0.0
2016-Jul-20 23:32N 43°35' E 007°08'0 0.0
2016-Jul-20 22:26N 43°35' E 007°08'0 0.0
2016-Jul-20 21:32N 43°35' E 007°08'0 0.0
2016-Jul-20 20:20N 43°35' E 007°08'5 6.0
2016-Jul-20 19:33N 43°37' E 007°14'8 7.3
2016-Jul-20 18:29N 43°43' E 007°22'0 0.0
2016-Jul-20 17:29N 43°43' E 007°22'0 0.0
2016-Jul-20 16:29N 43°43' E 007°22'0 0.0
2016-Jul-20 15:29N 43°43' E 007°22'0 0.0
2016-Jul-20 13:23N 43°43' E 007°22'0 0.0
2016-Jul-20 10:29N 43°43' E 007°22'0 0.0
2016-Jul-20 09:17N 43°43' E 007°22'0 0.0
2016-Jul-20 08:11N 43°43' E 007°22'0 0.0
2016-Jul-20 07:23N 43°43' E 007°22'3 0.8
2016-Jul-20 03:31N 43°44' E 007°25'0 0.0
2016-Jul-19 19:12N 43°44' E 007°25'1 1.6
2016-Jul-19 18:33N 43°44' E 007°27'2 1.6
2016-Jul-19 17:10N 43°45' E 007°29'0 0.0
2016-Jul-19 10:34N 43°45' E 007°29'5 3.5
2016-Jul-19 09:04N 43°41' E 007°33'510.7
2016-Jul-19 08:33N 43°36' E 007°36'1510.6
2016-Jul-19 07:09N 43°24' E 007°48'610.6
2016-Jul-19 06:33N 43°19' E 007°54'2110.4
2016-Jul-19 04:33N 43°05' E 008°14'3510.3
2016-Jul-19 01:09N 42°38' E 008°45'4 6.9
2016-Jul-19 00:33N 42°34' E 008°46'0 0.0
2016-Jul-18 23:24N 42°34' E 008°46'0 0.0
2016-Jul-18 22:33N 42°34' E 008°46'18 0.9
2016-Jul-18 02:21N 42°51' E 008°39'1010.8
2016-Jul-18 01:25N 43°01' E 008°43'1011.0
2016-Jul-18 00:32N 43°10' E 008°48'1111.2
2016-Jul-17 23:33N 43°20' E 008°53'1111.2
2016-Jul-17 22:33N 43°31' E 008°55'1111.1
2016-Jul-17 21:33N 43°42' E 008°59'1111.0
2016-Jul-17 20:34N 43°53' E 009°03'1111.1
2016-Jul-17 19:33N 44°03' E 009°07'1111.1
2016-Jul-17 18:33N 44°14' E 009°12'6 0.3
2016-Jul-17 02:30N 44°19' E 009°13'  
Track history (hours):
 
Tides and Currents Weather Stations Pressure Air Temp Water Temp Dewpoint Dewpoint Depression Visibility Wind Speed Wind Dir Waves Ship Positions

Newvida

Last reported at 2016-Jul-27 00:30 UTC. Time now 2016-Jul-27 01:14 UTC.
Position N 43°35' E 007°08'.

Length 56 m; draft 2.4 m.

Type: Pleasure craft. MMSI: 538080049.

Date/timePositionNaut miles runAvg speedWind from/ knotsBaromVisibWave heightAir tempDewpointWater temp
2016-Jul-27 00:30N 43°35' E 007°08'0 0.0
2016-Jul-26 23:30N 43°35' E 007°08'0 0.0
2016-Jul-26 22:30N 43°35' E 007°08'0 0.0
2016-Jul-26 21:30N 43°35' E 007°08'0 0.0
2016-Jul-26 20:30N 43°35' E 007°08'0 0.0
2016-Jul-26 19:30N 43°35' E 007°08'0 0.0
2016-Jul-26 18:30N 43°35' E 007°08'0 0.0
2016-Jul-26 17:30N 43°35' E 007°08'0 0.0
2016-Jul-26 16:24N 43°35' E 007°08'0 0.0
2016-Jul-26 15:30N 43°35' E 007°08'0 0.0
2016-Jul-26 14:30N 43°35' E 007°08'0 0.0
2016-Jul-26 13:30N 43°35' E 007°08'0 0.0
2016-Jul-26 12:30N 43°35' E 007°08'0 0.0
2016-Jul-26 11:24N 43°35' E 007°08'0 0.0
2016-Jul-26 10:33N 43°35' E 007°08'1 0.9
2016-Jul-26 09:33N 43°36' E 007°09'9 8.5
2016-Jul-26 08:33N 43°42' E 007°17'0 0.0
2016-Jul-26 07:29N 43°42' E 007°17'0 0.0
2016-Jul-26 06:29N 43°42' E 007°17'0 0.0
2016-Jul-26 05:29N 43°42' E 007°17'0 0.0
2016-Jul-26 04:29N 43°42' E 007°17'0 0.0
2016-Jul-26 03:23N 43°42' E 007°17'0 0.0
2016-Jul-26 02:29N 43°42' E 007°17'0 0.0
2016-Jul-26 01:29N 43°42' E 007°17'0 0.0
2016-Jul-26 00:29N 43°42' E 007°17'0 0.0
2016-Jul-25 23:29N 43°42' E 007°17'0 0.0
2016-Jul-25 22:29N 43°42' E 007°17'0 0.0
2016-Jul-25 21:11N 43°42' E 007°17'0 0.0
2016-Jul-25 20:29N 43°42' E 007°17'0 0.0
2016-Jul-25 19:29N 43°42' E 007°17'0 0.0
2016-Jul-25 18:29N 43°42' E 007°17'0 0.0
2016-Jul-25 17:29N 43°42' E 007°17'0 0.0
2016-Jul-25 16:29N 43°42' E 007°17'0 0.0
2016-Jul-25 15:29N 43°42' E 007°17'0 0.0
2016-Jul-25 14:29N 43°42' E 007°17'0 0.0
2016-Jul-25 13:17N 43°42' E 007°17'0 0.0
2016-Jul-25 12:29N 43°42' E 007°17'0 0.0
2016-Jul-25 11:17N 43°42' E 007°17'0 0.0
2016-Jul-25 10:29N 43°42' E 007°17'0 0.0
2016-Jul-25 09:29N 43°42' E 007°17'0 0.0
2016-Jul-25 08:29N 43°42' E 007°17'0 0.0
2016-Jul-25 07:29N 43°42' E 007°17'0 0.0
2016-Jul-25 06:11N 43°42' E 007°17'0 0.0
2016-Jul-25 05:23N 43°42' E 007°17'0 0.0
2016-Jul-25 04:17N 43°42' E 007°17'0 0.0
2016-Jul-25 03:29N 43°42' E 007°17'0 0.0
2016-Jul-25 02:29N 43°42' E 007°17'0 0.0
2016-Jul-25 01:29N 43°42' E 007°17'0 0.0
2016-Jul-25 00:23N 43°42' E 007°17'0 0.0
2016-Jul-24 23:29N 43°42' E 007°17'0 0.0
2016-Jul-24 22:29N 43°42' E 007°17'0 0.0
2016-Jul-24 21:23N 43°42' E 007°17'0 0.0
2016-Jul-24 20:23N 43°42' E 007°17'0 0.0
2016-Jul-24 19:29N 43°42' E 007°17'0 0.0
2016-Jul-24 18:17N 43°42' E 007°17'0 0.0
2016-Jul-24 17:29N 43°42' E 007°17'0 0.0
2016-Jul-24 16:29N 43°42' E 007°17'0 0.0
2016-Jul-24 15:11N 43°42' E 007°17'0 0.0
2016-Jul-24 14:23N 43°42' E 007°17'0 0.0
2016-Jul-24 13:29N 43°42' E 007°17'0 0.0
2016-Jul-24 12:11N 43°42' E 007°17'0 0.1
2016-Jul-24 11:34N 43°42' E 007°17'5 4.6
2016-Jul-24 10:26N 43°39' E 007°11'0 0.0
2016-Jul-24 09:26N 43°39' E 007°11'0 0.0
2016-Jul-24 08:32N 43°39' E 007°11'5 4.9
2016-Jul-24 07:33N 43°34' E 007°11'30 0.8
2016-Jul-22 19:11N 43°16' E 006°38'0 0.0
2016-Jul-22 18:32N 43°16' E 006°38'0 0.0
2016-Jul-22 17:33N 43°16' E 006°38'3 3.3
2016-Jul-22 16:33N 43°15' E 006°42'2 1.0
2016-Jul-22 14:33N 43°14' E 006°40'24 2.7
2016-Jul-22 05:33N 43°32' E 007°02'0 0.0
2016-Jul-22 04:30N 43°32' E 007°02'0 0.0
2016-Jul-22 03:27N 43°32' E 007°02'0 0.0
2016-Jul-22 02:30N 43°32' E 007°02'0 0.0
2016-Jul-22 01:30N 43°32' E 007°02'0 0.0
2016-Jul-22 00:30N 43°32' E 007°02'0 0.0
2016-Jul-21 23:30N 43°32' E 007°02'0 0.0
2016-Jul-21 22:33N 43°32' E 007°02'0 0.0
2016-Jul-21 21:33N 43°32' E 007°02'0 0.0
2016-Jul-21 20:33N 43°32' E 007°02'0 0.0
2016-Jul-21 19:33N 43°32' E 007°02'0 0.0
2016-Jul-21 18:33N 43°32' E 007°02'0 0.0
2016-Jul-21 17:33N 43°32' E 007°02'0 0.3
2016-Jul-21 16:29N 43°32' E 007°01'3 2.6
2016-Jul-21 15:26N 43°31' E 007°04'3 3.7
2016-Jul-21 14:32N 43°33' E 007°06'0 0.0
2016-Jul-21 13:32N 43°33' E 007°06'0 0.0
2016-Jul-21 12:32N 43°33' E 007°06'0 0.0
2016-Jul-21 11:33N 43°33' E 007°06'2 2.4
2016-Jul-21 10:34N 43°35' E 007°08'0 0.0
2016-Jul-21 09:32N 43°35' E 007°08'0 0.0
2016-Jul-21 08:32N 43°35' E 007°08'0 0.0
2016-Jul-21 07:32N 43°35' E 007°08'0 0.0
2016-Jul-21 06:32N 43°35' E 007°08'0 0.0
2016-Jul-21 05:32N 43°35' E 007°08'0 0.0
2016-Jul-21 04:32N 43°35' E 007°08'0 0.0
2016-Jul-21 03:32N 43°35' E 007°08'0 0.0
2016-Jul-21 02:32N 43°35' E 007°08'0 0.0
2016-Jul-21 01:32N 43°35' E 007°08'0 0.0
2016-Jul-21 00:32N 43°35' E 007°08'0 0.0
2016-Jul-20 23:32N 43°35' E 007°08'0 0.0
2016-Jul-20 22:26N 43°35' E 007°08'0 0.0
2016-Jul-20 21:32N 43°35' E 007°08'0 0.0
2016-Jul-20 20:20N 43°35' E 007°08'5 6.0
2016-Jul-20 19:33N 43°37' E 007°14'8 7.3
2016-Jul-20 18:29N 43°43' E 007°22'0 0.0
2016-Jul-20 17:29N 43°43' E 007°22'0 0.0
2016-Jul-20 16:29N 43°43' E 007°22'0 0.0
2016-Jul-20 15:29N 43°43' E 007°22'0 0.0
2016-Jul-20 13:23N 43°43' E 007°22'0 0.0
2016-Jul-20 10:29N 43°43' E 007°22'0 0.0
2016-Jul-20 09:17N 43°43' E 007°22'0 0.0
2016-Jul-20 08:11N 43°43' E 007°22'0 0.0
2016-Jul-20 07:23N 43°43' E 007°22'3 0.8
2016-Jul-20 03:31N 43°44' E 007°25'0 0.0
2016-Jul-19 19:12N 43°44' E 007°25'1 1.6
2016-Jul-19 18:33N 43°44' E 007°27'2 1.6
2016-Jul-19 17:10N 43°45' E 007°29'0 0.0
2016-Jul-19 10:34N 43°45' E 007°29'5 3.5
2016-Jul-19 09:04N 43°41' E 007°33'510.7
2016-Jul-19 08:33N 43°36' E 007°36'1510.6
2016-Jul-19 07:09N 43°24' E 007°48'610.6
2016-Jul-19 06:33N 43°19' E 007°54'2110.4
2016-Jul-19 04:33N 43°05' E 008°14'3510.3
2016-Jul-19 01:09N 42°38' E 008°45'4 6.9
2016-Jul-19 00:33N 42°34' E 008°46'0 0.0
2016-Jul-18 23:24N 42°34' E 008°46'0 0.0
2016-Jul-18 22:33N 42°34' E 008°46'18 0.9
2016-Jul-18 02:21N 42°51' E 008°39'1010.8
2016-Jul-18 01:25N 43°01' E 008°43'1011.0
2016-Jul-18 00:32N 43°10' E 008°48'1111.2
2016-Jul-17 23:33N 43°20' E 008°53'1111.2
2016-Jul-17 22:33N 43°31' E 008°55'1111.1
2016-Jul-17 21:33N 43°42' E 008°59'1111.0
2016-Jul-17 20:34N 43°53' E 009°03'1111.1
2016-Jul-17 19:33N 44°03' E 009°07'1111.1
2016-Jul-17 18:33N 44°14' E 009°12'6 0.3
2016-Jul-17 02:30N 44°19' E 009°13'  

Dump ship's entire track history